createdAt,value
2023-02-16T00:01:52.950Z,44.15
2023-02-16T00:04:23.508Z,47.97
2023-02-16T00:06:51.567Z,56.10
2023-02-16T00:09:19.778Z,58.72
2023-02-16T00:12:06.442Z,53.92
2023-02-16T00:14:36.386Z,53.38
2023-02-16T00:17:04.747Z,57.00
2023-02-16T00:19:35.806Z,54.83
2023-02-16T00:22:04.150Z,56.40
2023-02-16T00:24:31.914Z,59.08
2023-02-16T00:27:00.585Z,63.72
2023-02-16T00:29:37.482Z,60.38
2023-02-16T00:32:06.286Z,56.88
2023-02-16T00:34:35.372Z,67.00
2023-02-16T00:37:08.041Z,63.63
2023-02-16T00:39:36.591Z,54.22
2023-02-16T00:42:06.702Z,78.65
2023-02-16T00:44:43.370Z,109.28
2023-02-16T00:47:19.993Z,112.25
2023-02-16T00:49:48.803Z,89.05
2023-02-16T00:52:38.051Z,95.90
2023-02-16T00:55:17.379Z,99.43
2023-02-16T00:57:47.271Z,92.72
2023-02-16T01:00:25.566Z,76.22
2023-02-16T01:02:55.460Z,77.32
2023-02-16T01:05:22.888Z,58.55
2023-02-16T01:08:08.862Z,54.28
2023-02-16T01:10:56.016Z,49.95
2023-02-16T01:13:25.008Z,42.35
2023-02-16T01:15:52.370Z,45.03
2023-02-16T01:18:21.174Z,43.10
2023-02-16T01:20:49.549Z,42.70
2023-02-16T01:23:16.600Z,42.38
2023-02-16T01:25:43.866Z,41.90
2023-02-16T01:28:20.627Z,43.70
2023-02-16T01:30:48.756Z,37.65
2023-02-16T01:33:16.106Z,44.30
2023-02-16T01:35:44.303Z,43.95
2023-02-16T01:38:26.341Z,41.85
2023-02-16T01:41:22.763Z,37.88
2023-02-16T01:43:59.199Z,46.05
2023-02-16T01:46:43.429Z,41.53
2023-02-16T01:49:15.426Z,44.28
2023-02-16T01:51:52.465Z,43.70
2023-02-16T01:54:58.277Z,40.25
2023-02-16T01:57:40.043Z,47.92
2023-02-16T02:00:22.567Z,48.63
2023-02-16T02:03:19.947Z,45.83
2023-02-16T02:05:49.943Z,41.33
2023-02-16T02:08:37.205Z,37.70
2023-02-16T02:11:14.409Z,33.85
2023-02-16T02:14:00.369Z,33.78
2023-02-16T02:16:28.583Z,33.80
2023-02-16T02:18:55.643Z,32.97
2023-02-16T02:22:03.819Z,36.10
2023-02-16T02:24:58.634Z,37.30
2023-02-16T02:27:27.351Z,37.65
2023-02-16T02:30:30.163Z,38.53
2023-02-16T02:33:12.305Z,46.60
2023-02-16T02:36:03.578Z,45.35
2023-02-16T02:38:53.853Z,44.10
2023-02-16T02:41:57.464Z,43.13
2023-02-16T02:44:27.174Z,48.85
2023-02-16T02:46:54.885Z,49.83
2023-02-16T02:49:22.325Z,46.55
2023-02-16T02:51:50.653Z,42.47
2023-02-16T02:54:43.660Z,46.67
2023-02-16T02:57:54.418Z,36.70
2023-02-16T03:00:51.923Z,38.03
2023-02-16T03:03:36.424Z,34.58
2023-02-16T03:06:08.556Z,32.85
2023-02-16T03:08:39.940Z,33.75
2023-02-16T03:11:32.864Z,37.50
2023-02-16T03:14:17.176Z,38.58
2023-02-16T03:17:18.338Z,35.65
2023-02-16T03:20:06.309Z,40.35
2023-02-16T03:22:54.002Z,41.40
2023-02-16T03:25:43.040Z,42.22
2023-02-16T03:28:31.052Z,41.08
2023-02-16T03:30:59.459Z,40.38
2023-02-16T03:33:28.009Z,41.20
2023-02-16T03:35:55.974Z,42.70
2023-02-16T03:38:23.148Z,45.97
2023-02-16T03:40:51.300Z,47.38
2023-02-16T03:43:18.543Z,43.70
2023-02-16T03:45:46.091Z,48.03
2023-02-16T03:48:13.544Z,40.42
2023-02-16T03:50:40.685Z,36.70
2023-02-16T03:53:07.953Z,33.05
2023-02-16T03:55:47.285Z,28.67
2023-02-16T03:58:20.004Z,26.15
2023-02-16T04:00:47.499Z,22.75
2023-02-16T04:03:15.226Z,26.67
2023-02-16T04:05:42.731Z,33.28
2023-02-16T04:08:10.832Z,31.83
2023-02-16T04:10:38.790Z,32.22
2023-02-16T04:13:05.990Z,37.70
2023-02-16T04:15:33.609Z,39.70
2023-02-16T04:18:01.490Z,38.42
2023-02-16T04:20:31.821Z,39.17
2023-02-16T04:22:59.069Z,39.22
2023-02-16T04:25:26.341Z,35.92
2023-02-16T04:27:53.839Z,46.70
2023-02-16T04:30:23.785Z,45.90
2023-02-16T04:32:51.121Z,45.25
2023-02-16T04:35:19.745Z,50.53
2023-02-16T04:37:47.048Z,44.72
2023-02-16T04:40:16.658Z,41.20
2023-02-16T04:42:44.662Z,37.05
2023-02-16T04:45:12.290Z,40.85
2023-02-16T04:47:39.365Z,39.67
2023-02-16T04:50:07.284Z,42.83
2023-02-16T04:52:34.563Z,46.88
2023-02-16T04:55:01.614Z,44.03
2023-02-16T04:57:28.928Z,44.03
2023-02-16T04:59:56.034Z,45.70
2023-02-16T05:02:23.412Z,41.83
2023-02-16T05:04:50.628Z,45.95
2023-02-16T05:07:17.695Z,50.75
2023-02-16T05:09:44.832Z,48.80
2023-02-16T05:12:30.687Z,45.63
2023-02-16T05:14:57.774Z,43.75
2023-02-16T05:17:27.105Z,45.70
2023-02-16T05:19:57.642Z,45.40
2023-02-16T05:22:25.815Z,43.58
2023-02-16T05:24:52.866Z,39.33
2023-02-16T05:27:23.029Z,42.92
2023-02-16T05:29:50.364Z,36.67
2023-02-16T05:32:18.000Z,36.58
2023-02-16T05:34:45.747Z,37.20
2023-02-16T05:37:17.084Z,34.33
2023-02-16T05:39:44.920Z,39.92
2023-02-16T05:42:12.084Z,36.83
2023-02-16T05:44:39.193Z,32.47
2023-02-16T05:47:06.402Z,35.90
2023-02-16T05:49:33.521Z,43.53
2023-02-16T05:52:00.558Z,37.47
2023-02-16T05:54:28.181Z,39.30
2023-02-16T05:56:55.768Z,43.30
2023-02-16T05:59:23.253Z,38.88
2023-02-16T06:01:52.242Z,38.42
2023-02-16T06:04:20.886Z,32.55
2023-02-16T06:06:48.308Z,38.83
2023-02-16T06:09:15.570Z,35.13
2023-02-16T06:11:43.140Z,32.25
2023-02-16T06:14:13.488Z,36.33
2023-02-16T06:16:43.358Z,35.17
2023-02-16T06:19:11.738Z,36.28
2023-02-16T06:21:39.733Z,37.88
2023-02-16T06:24:09.141Z,36.92
2023-02-16T06:26:36.410Z,37.67
2023-02-16T06:29:04.347Z,36.20
2023-02-16T06:31:33.225Z,37.25
2023-02-16T06:34:04.032Z,42.10
2023-02-16T06:36:31.745Z,49.05
2023-02-16T06:38:58.904Z,47.65
2023-02-16T06:41:34.583Z,48.90
2023-02-16T06:44:13.694Z,52.40
2023-02-16T06:46:42.753Z,60.88
2023-02-16T06:49:21.611Z,73.20
2023-02-16T06:51:49.818Z,78.13
2023-02-16T06:54:18.089Z,84.38
2023-02-16T06:56:45.531Z,85.10
2023-02-16T06:59:13.060Z,63.55
2023-02-16T07:01:40.107Z,66.20
2023-02-16T07:04:07.309Z,66.05
2023-02-16T07:06:34.587Z,50.05
2023-02-16T07:09:01.766Z,46.92
2023-02-16T07:11:29.426Z,43.15
2023-02-16T07:13:56.739Z,40.88
2023-02-16T07:16:24.365Z,41.28
2023-02-16T07:18:51.644Z,39.83
2023-02-16T07:21:18.731Z,39.55
2023-02-16T07:23:45.989Z,35.90
2023-02-16T07:26:13.313Z,43.00
2023-02-16T07:28:40.570Z,38.13
2023-02-16T07:31:13.785Z,36.80
2023-02-16T07:33:41.286Z,37.63
2023-02-16T07:36:09.950Z,35.22
2023-02-16T07:38:37.257Z,31.40
2023-02-16T07:41:07.744Z,37.03
2023-02-16T07:43:36.909Z,32.03
2023-02-16T07:46:04.213Z,30.65
2023-02-16T07:48:31.817Z,31.25
2023-02-16T07:50:59.062Z,40.58
2023-02-16T07:53:26.227Z,41.92
2023-02-16T07:55:53.311Z,42.13
2023-02-16T07:58:29.346Z,41.67
2023-02-16T08:01:15.466Z,42.80
2023-02-16T08:03:43.293Z,35.28
2023-02-16T08:06:10.938Z,49.20
2023-02-16T08:08:39.072Z,46.30
2023-02-16T08:11:18.022Z,44.20
2023-02-16T08:13:47.007Z,52.35
2023-02-16T08:16:25.923Z,44.38
2023-02-16T08:18:55.473Z,42.63
2023-02-16T08:21:25.000Z,46.92
2023-02-16T08:24:05.071Z,48.92
2023-02-16T08:26:41.113Z,55.25
2023-02-16T08:29:10.311Z,54.63
2023-02-16T08:31:38.686Z,49.40
2023-02-16T08:34:10.592Z,43.15
2023-02-16T08:36:43.935Z,41.70
2023-02-16T08:41:49.959Z,46.72
2023-02-16T08:44:18.846Z,47.80
2023-02-16T08:46:51.123Z,61.58
2023-02-16T08:49:24.772Z,82.32
2023-02-16T08:51:58.921Z,54.13
2023-02-16T08:54:30.628Z,43.15
2023-02-16T08:57:04.979Z,44.35
2023-02-16T08:59:37.521Z,42.80
2023-02-16T09:02:09.971Z,36.65
2023-02-16T09:04:41.741Z,47.57
2023-02-16T09:07:13.334Z,47.03
2023-02-16T09:09:44.773Z,44.25
2023-02-16T09:12:16.837Z,38.55
2023-02-16T09:14:48.510Z,44.33
2023-02-16T09:17:20.591Z,40.33
2023-02-16T09:19:52.625Z,34.10
2023-02-16T09:22:24.695Z,45.40
2023-02-16T09:24:57.076Z,39.72
2023-02-16T09:27:29.827Z,37.20
2023-02-16T09:30:01.602Z,33.88
2023-02-16T09:32:34.984Z,36.70
2023-02-16T09:35:07.478Z,34.25
2023-02-16T09:37:34.551Z,33.38
2023-02-16T09:40:08.184Z,49.97
2023-02-16T09:42:57.102Z,30.13
2023-02-16T09:45:27.107Z,37.50
2023-02-16T09:47:56.681Z,46.00
2023-02-16T09:50:52.265Z,39.90
2023-02-16T09:53:30.312Z,37.35
2023-02-16T09:56:15.608Z,35.42
2023-02-16T09:58:56.459Z,37.85
2023-02-16T10:01:35.427Z,34.47
2023-02-16T10:04:21.352Z,30.38
2023-02-16T10:07:17.004Z,27.90
2023-02-16T10:09:49.234Z,30.48
2023-02-16T10:12:32.734Z,30.33
2023-02-16T10:15:09.520Z,34.17
2023-02-16T10:17:37.822Z,36.00
2023-02-16T10:20:24.741Z,36.15
2023-02-16T10:23:23.283Z,38.13
2023-02-16T10:26:00.743Z,35.42
2023-02-16T10:28:41.146Z,38.63
2023-02-16T10:31:21.146Z,36.13
2023-02-16T10:34:24.301Z,33.97
2023-02-16T10:37:15.894Z,38.47
2023-02-16T10:39:57.816Z,43.20
2023-02-16T10:42:30.704Z,52.05
2023-02-16T10:45:16.339Z,46.25
2023-02-16T10:47:45.449Z,50.17
2023-02-16T10:50:37.976Z,45.08
2023-02-16T10:53:18.931Z,50.58
2023-02-16T10:55:46.014Z,47.90
2023-02-16T10:58:22.874Z,47.88
2023-02-16T11:01:28.408Z,43.20
2023-02-16T11:03:55.804Z,47.22
2023-02-16T11:06:29.250Z,33.83
2023-02-16T11:09:01.864Z,29.00
2023-02-16T11:11:39.776Z,37.03
2023-02-16T11:14:25.043Z,32.00
2023-02-16T11:17:12.751Z,30.15
2023-02-16T11:19:47.980Z,27.77
2023-02-16T11:22:44.572Z,30.30
2023-02-16T11:25:24.681Z,31.00
2023-02-16T11:27:59.796Z,30.55
2023-02-16T11:30:33.865Z,32.13
2023-02-16T11:33:03.687Z,28.60
2023-02-16T11:35:41.227Z,28.52
2023-02-16T11:38:27.064Z,28.15
2023-02-16T11:40:54.615Z,23.63
2023-02-16T11:43:22.235Z,26.27
2023-02-16T11:46:07.817Z,27.70
2023-02-16T11:48:35.233Z,26.35
2023-02-16T11:51:10.952Z,23.02
2023-02-16T11:53:42.998Z,23.77
2023-02-16T11:56:10.817Z,28.07
2023-02-16T11:58:38.076Z,30.83
2023-02-16T12:01:29.193Z,26.88
2023-02-16T12:04:21.442Z,26.23
2023-02-16T12:06:59.479Z,25.45
2023-02-16T12:09:46.178Z,29.13
2023-02-16T12:12:30.777Z,30.98
2023-02-16T12:15:19.683Z,26.73
2023-02-16T12:18:16.502Z,31.30
2023-02-16T12:20:53.306Z,31.73
2023-02-16T12:23:39.080Z,29.25
2023-02-16T12:26:17.820Z,29.95
2023-02-16T12:29:01.717Z,29.50
2023-02-16T12:31:47.587Z,27.67
2023-02-16T12:34:33.509Z,25.77
2023-02-16T12:37:04.586Z,24.23
2023-02-16T12:39:46.051Z,24.33
2023-02-16T12:42:50.067Z,24.50
2023-02-16T12:45:22.207Z,21.58
2023-02-16T12:48:15.292Z,25.33
2023-02-16T12:50:44.579Z,20.38
2023-02-16T12:53:14.794Z,23.95
2023-02-16T12:56:20.858Z,24.50
2023-02-16T12:58:53.605Z,26.35
2023-02-16T13:01:33.995Z,22.00
2023-02-16T13:04:24.308Z,22.48
2023-02-16T13:07:18.529Z,19.40
2023-02-16T13:10:16.393Z,22.13
2023-02-16T13:13:17.956Z,20.13
2023-02-16T13:15:56.841Z,20.05
2023-02-16T13:18:32.752Z,23.75
2023-02-16T13:21:49.071Z,22.02
2023-02-16T13:24:29.668Z,20.02
2023-02-16T13:27:07.111Z,25.10
2023-02-16T13:29:52.861Z,24.00
2023-02-16T13:32:43.850Z,24.10
2023-02-16T13:35:41.338Z,25.65
2023-02-16T13:38:51.197Z,23.95
2023-02-16T13:41:18.212Z,21.60
2023-02-16T13:43:57.038Z,18.70
2023-02-16T13:46:42.921Z,17.65
2023-02-16T13:49:40.520Z,20.30
2023-02-16T13:52:09.043Z,17.75
2023-02-16T13:54:43.950Z,21.73
2023-02-16T13:57:18.612Z,16.13
2023-02-16T13:59:58.579Z,21.92
2023-02-16T14:02:55.226Z,20.10
2023-02-16T14:05:31.434Z,18.98
2023-02-16T14:08:20.174Z,21.05
2023-02-16T14:10:56.336Z,18.33
2023-02-16T14:13:38.927Z,16.63
2023-02-16T14:16:24.553Z,15.23
2023-02-16T14:19:20.756Z,19.38
2023-02-16T14:21:54.555Z,17.05
2023-02-16T14:24:41.158Z,19.80
2023-02-16T14:27:15.103Z,21.90
2023-02-16T14:30:03.569Z,26.55
2023-02-16T14:32:38.707Z,28.25
2023-02-16T14:35:38.198Z,27.17
2023-02-16T14:38:29.902Z,28.20
2023-02-16T14:41:05.913Z,34.72
2023-02-16T14:43:48.446Z,27.95
2023-02-16T14:46:55.939Z,27.58
2023-02-16T14:50:10.344Z,28.38
2023-02-16T14:53:08.857Z,40.97
2023-02-16T14:56:12.073Z,37.72
2023-02-16T14:58:58.234Z,37.45
2023-02-16T15:01:26.299Z,34.67
2023-02-16T15:04:00.787Z,35.00
2023-02-16T15:06:47.510Z,37.50
2023-02-16T15:09:33.309Z,30.50
2023-02-16T15:12:24.217Z,33.42
2023-02-16T15:15:03.556Z,36.78
2023-02-16T15:17:47.865Z,34.63
2023-02-16T15:20:42.224Z,36.33
2023-02-16T15:23:34.571Z,33.70
2023-02-16T15:26:17.812Z,45.47
2023-02-16T15:28:56.897Z,37.05
2023-02-16T15:31:42.020Z,48.10
2023-02-16T15:34:30.394Z,42.63
2023-02-16T15:37:03.922Z,49.33
2023-02-16T15:39:46.431Z,43.67
2023-02-16T15:42:26.402Z,46.80
2023-02-16T15:44:56.387Z,45.80
2023-02-16T15:47:26.268Z,45.78
2023-02-16T15:49:54.329Z,38.65
2023-02-16T15:52:33.835Z,41.22
2023-02-16T15:55:02.643Z,45.17
2023-02-16T15:57:38.992Z,46.15
2023-02-16T16:00:21.864Z,45.00
2023-02-16T16:02:51.359Z,47.65
2023-02-16T16:05:25.504Z,48.95
2023-02-16T16:07:54.707Z,45.95
2023-02-16T16:10:26.327Z,47.38
2023-02-16T16:12:58.960Z,49.33
2023-02-16T16:15:29.160Z,50.45
2023-02-16T16:17:59.997Z,58.17
2023-02-16T16:20:42.372Z,66.82
2023-02-16T16:23:15.856Z,60.47
2023-02-16T16:25:46.211Z,56.85
2023-02-16T16:28:32.658Z,65.15
2023-02-16T16:31:17.485Z,60.72
2023-02-16T16:34:05.269Z,62.67
2023-02-16T16:36:37.105Z,70.18
2023-02-16T16:39:19.394Z,82.93
2023-02-16T16:42:08.088Z,74.88
2023-02-16T16:44:38.099Z,72.78
2023-02-16T16:47:27.983Z,90.32
2023-02-16T16:50:03.281Z,100.22
2023-02-16T16:52:44.205Z,102.43
2023-02-16T16:55:21.606Z,97.75
2023-02-16T16:57:53.818Z,74.95
2023-02-16T17:00:23.296Z,76.33
2023-02-16T17:02:50.380Z,77.78
2023-02-16T17:05:18.781Z,88.95
2023-02-16T17:07:49.270Z,78.32
2023-02-16T17:10:19.041Z,74.50
2023-02-16T17:12:51.184Z,76.95
2023-02-16T17:15:44.209Z,78.27
2023-02-16T17:18:19.059Z,78.93
2023-02-16T17:20:47.333Z,83.20
2023-02-16T17:23:16.391Z,81.53
2023-02-16T17:25:44.485Z,75.55
2023-02-16T17:28:13.087Z,82.15
2023-02-16T17:30:40.264Z,82.38
2023-02-16T17:33:07.959Z,92.25
2023-02-16T17:35:37.964Z,83.30
2023-02-16T17:38:19.201Z,78.47
2023-02-16T17:40:51.048Z,78.13
2023-02-16T17:43:19.448Z,78.10
2023-02-16T17:45:47.291Z,72.40
2023-02-16T17:48:24.537Z,77.88
2023-02-16T17:50:51.927Z,70.07
2023-02-16T17:53:22.200Z,69.75
2023-02-16T17:55:51.989Z,70.00
2023-02-16T17:58:20.054Z,68.15
2023-02-16T18:00:47.462Z,79.32
2023-02-16T18:03:14.772Z,66.80
2023-02-16T18:06:36.141Z,65.07
2023-02-16T18:09:04.219Z,70.63
2023-02-16T18:11:31.901Z,74.32
2023-02-16T18:13:59.019Z,86.50
2023-02-16T18:16:27.373Z,92.80
2023-02-16T18:18:54.790Z,99.80
2023-02-16T18:21:21.907Z,111.82
2023-02-16T18:23:49.560Z,101.50
2023-02-16T18:26:17.282Z,100.07
2023-02-16T18:28:45.218Z,94.68
2023-02-16T18:31:13.242Z,93.90
2023-02-16T18:33:40.694Z,92.53
2023-02-16T18:36:08.340Z,96.22
2023-02-16T18:38:35.584Z,94.43
2023-02-16T18:41:02.763Z,85.78
2023-02-16T18:43:29.951Z,86.78
2023-02-16T18:45:57.389Z,90.82
2023-02-16T18:48:24.538Z,84.13
2023-02-16T18:50:51.762Z,85.20
2023-02-16T18:53:18.940Z,80.28
2023-02-16T18:55:46.158Z,72.03
2023-02-16T18:58:15.019Z,70.55
2023-02-16T19:00:42.167Z,67.20
2023-02-16T19:03:09.993Z,60.45
2023-02-16T19:05:37.344Z,62.17
2023-02-16T19:08:04.685Z,64.15
2023-02-16T19:10:32.807Z,60.13
2023-02-16T19:13:01.331Z,59.53
2023-02-16T19:15:29.468Z,55.97
2023-02-16T19:17:56.600Z,54.50
2023-02-16T19:20:24.060Z,58.08
2023-02-16T19:22:51.279Z,52.28
2023-02-16T19:25:18.432Z,61.03
2023-02-16T19:27:45.696Z,59.17
2023-02-16T19:30:13.662Z,55.63
2023-02-16T19:32:41.414Z,56.25
2023-02-16T19:35:12.358Z,51.67
2023-02-16T19:37:39.841Z,50.75
2023-02-16T19:40:11.647Z,57.75
2023-02-16T19:42:39.566Z,52.67
2023-02-16T19:45:07.445Z,51.30
2023-02-16T19:47:34.487Z,52.00
2023-02-16T19:50:02.077Z,54.67
2023-02-16T19:52:29.234Z,50.78
2023-02-16T19:54:56.351Z,48.25
2023-02-16T19:57:23.525Z,49.55
2023-02-16T19:59:50.676Z,53.40
2023-02-16T20:02:18.013Z,47.72
2023-02-16T20:04:45.176Z,55.92
2023-02-16T20:07:12.360Z,54.88
2023-02-16T20:09:39.866Z,55.53
2023-02-16T20:12:07.200Z,56.22
2023-02-16T20:14:34.410Z,55.20
2023-02-16T20:17:01.667Z,57.80
2023-02-16T20:19:28.727Z,55.83
2023-02-16T20:21:55.880Z,51.25
2023-02-16T20:24:22.927Z,53.33
2023-02-16T20:26:52.205Z,53.13
2023-02-16T20:29:20.981Z,50.22
2023-02-16T20:31:55.454Z,48.35
2023-02-16T20:34:25.190Z,42.97
2023-02-16T20:36:52.541Z,45.90
2023-02-16T20:39:20.352Z,40.60
2023-02-16T20:41:47.473Z,44.15
2023-02-16T20:44:15.825Z,50.92
2023-02-16T20:46:43.422Z,61.45
2023-02-16T20:49:10.700Z,68.40
2023-02-16T20:51:40.226Z,62.50
2023-02-16T20:54:08.811Z,65.95
2023-02-16T20:56:35.943Z,60.67
2023-02-16T20:59:08.466Z,64.18
2023-02-16T21:04:07.352Z,65.30
2023-02-16T21:06:35.639Z,74.45
2023-02-16T21:09:04.062Z,69.30
2023-02-16T21:11:31.774Z,72.80
2023-02-16T21:14:00.160Z,63.90
2023-02-16T21:16:27.285Z,68.10
2023-02-16T21:18:55.513Z,72.57
2023-02-16T21:21:23.041Z,73.10
2023-02-16T21:23:54.296Z,71.25
2023-02-16T21:26:24.891Z,68.38
2023-02-16T21:28:58.059Z,76.63
2023-02-16T21:31:28.990Z,60.67
2023-02-16T21:33:57.478Z,47.83
2023-02-16T21:36:26.867Z,48.20
2023-02-16T21:38:55.204Z,47.30
2023-02-16T21:41:26.299Z,46.55
2023-02-16T21:44:08.840Z,55.78
2023-02-16T21:46:47.695Z,53.30
2023-02-16T21:49:17.330Z,50.15
2023-02-16T21:51:45.539Z,46.60
2023-02-16T21:54:18.328Z,45.65
2023-02-16T21:56:50.407Z,41.78
2023-02-16T21:59:19.920Z,55.28
2023-02-16T22:01:51.505Z,54.78
2023-02-16T22:04:22.637Z,59.25
2023-02-16T22:06:51.282Z,60.00
2023-02-16T22:09:20.921Z,55.08
2023-02-16T22:11:49.048Z,55.95
2023-02-16T22:14:17.432Z,54.05
2023-02-16T22:16:46.251Z,48.90
2023-02-16T22:19:15.791Z,61.45
2023-02-16T22:21:44.226Z,68.43
2023-02-16T22:24:15.187Z,69.57
2023-02-16T22:26:43.014Z,76.15
2023-02-16T22:29:11.021Z,80.32
2023-02-16T22:31:38.751Z,89.70
2023-02-16T22:34:08.625Z,100.93
2023-02-16T22:36:36.862Z,95.82
2023-02-16T22:39:04.888Z,90.75
2023-02-16T22:41:33.741Z,79.57
2023-02-16T22:44:01.336Z,75.28
2023-02-16T22:46:29.656Z,60.58
2023-02-16T22:49:02.123Z,51.55
2023-02-16T22:51:31.050Z,45.33
2023-02-16T22:54:00.005Z,45.75
2023-02-16T22:56:27.852Z,40.78
2023-02-16T22:58:57.616Z,35.13
2023-02-16T23:01:28.719Z,42.63
2023-02-16T23:03:57.832Z,44.63
2023-02-16T23:06:34.637Z,42.80
2023-02-16T23:09:05.826Z,65.13
2023-02-16T23:11:33.491Z,64.80
2023-02-16T23:14:00.964Z,66.20
2023-02-16T23:16:28.801Z,59.13
2023-02-16T23:18:59.611Z,53.75
2023-02-16T23:21:32.105Z,47.42
2023-02-16T23:24:00.067Z,50.65
2023-02-16T23:26:29.251Z,39.97
2023-02-16T23:28:58.675Z,83.88
2023-02-16T23:31:25.952Z,41.55
2023-02-16T23:33:55.935Z,36.53
2023-02-16T23:36:23.056Z,33.10
2023-02-16T23:38:50.146Z,30.83
2023-02-16T23:41:17.286Z,32.70
2023-02-16T23:43:44.780Z,35.33
2023-02-16T23:46:12.306Z,40.00
2023-02-16T23:48:39.551Z,48.33
2023-02-16T23:51:06.791Z,45.25
2023-02-16T23:53:34.223Z,40.45
2023-02-16T23:56:08.916Z,46.67
2023-02-16T23:58:41.369Z,50.35
